sensor_id;sensor_type;location;lat;lon;timestamp;pressure;altitude;pressure_sealevel;temperature;humidity
76074;BME280;64776;42.636;24.358;2022-10-31T00:02:03;90551.09;;;10.79;64.37
76074;BME280;64776;42.636;24.358;2022-10-31T00:04:30;90545.88;;;10.55;65.14
76074;BME280;64776;42.636;24.358;2022-10-31T00:06:56;90533.34;;;10.61;65.63
76074;BME280;64776;42.636;24.358;2022-10-31T00:09:22;90539.66;;;10.78;65.56
76074;BME280;64776;42.636;24.358;2022-10-31T00:11:48;90534.47;;;11.04;65.04
76074;BME280;64776;42.636;24.358;2022-10-31T00:14:14;90537.41;;;11.61;63.66
76074;BME280;64776;42.636;24.358;2022-10-31T00:16:39;90532.03;;;11.75;62.61
76074;BME280;64776;42.636;24.358;2022-10-31T00:19:06;90531.63;;;11.62;62.38
76074;BME280;64776;42.636;24.358;2022-10-31T00:21:34;90529.13;;;11.38;63.58
76074;BME280;64776;42.636;24.358;2022-10-31T00:24:00;90532.31;;;11.22;64.17
76074;BME280;64776;42.636;24.358;2022-10-31T00:26:26;90523.56;;;11.22;64.24
76074;BME280;64776;42.636;24.358;2022-10-31T00:28:52;90534.97;;;11.22;64.31
76074;BME280;64776;42.636;24.358;2022-10-31T00:31:18;90528.09;;;11.16;64.45
76074;BME280;64776;42.636;24.358;2022-10-31T00:33:44;90532.78;;;11.21;64.46
76074;BME280;64776;42.636;24.358;2022-10-31T00:36:12;90530.81;;;11.21;64.26
76074;BME280;64776;42.636;24.358;2022-10-31T00:38:40;90527.78;;;11.28;64.17
76074;BME280;64776;42.636;24.358;2022-10-31T00:41:06;90533.78;;;11.23;64.46
76074;BME280;64776;42.636;24.358;2022-10-31T00:43:32;90528.69;;;11.25;64.28
76074;BME280;64776;42.636;24.358;2022-10-31T00:45:58;90530.72;;;11.30;64.17
76074;BME280;64776;42.636;24.358;2022-10-31T00:48:24;90528.03;;;11.10;64.79
76074;BME280;64776;42.636;24.358;2022-10-31T00:50:49;90526.59;;;11.15;64.49
76074;BME280;64776;42.636;24.358;2022-10-31T00:53:15;90525.91;;;11.34;64.11
76074;BME280;64776;42.636;24.358;2022-10-31T00:55:42;90525.75;;;11.23;64.43
76074;BME280;64776;42.636;24.358;2022-10-31T00:58:08;90525.09;;;11.08;64.92
76074;BME280;64776;42.636;24.358;2022-10-31T01:00:34;90514.00;;;11.15;64.75
76074;BME280;64776;42.636;24.358;2022-10-31T01:03:00;90511.22;;;11.24;64.18
76074;BME280;64776;42.636;24.358;2022-10-31T01:05:26;90511.22;;;11.24;64.47
76074;BME280;64776;42.636;24.358;2022-10-31T01:07:51;90516.50;;;11.39;64.93
76074;BME280;64776;42.636;24.358;2022-10-31T01:10:17;90508.16;;;11.52;64.25
76074;BME280;64776;42.636;24.358;2022-10-31T01:12:46;90508.97;;;11.58;64.85
76074;BME280;64776;42.636;24.358;2022-10-31T01:15:14;90506.03;;;11.76;64.40
76074;BME280;64776;42.636;24.358;2022-10-31T01:17:40;90500.72;;;12.01;64.87
76074;BME280;64776;42.636;24.358;2022-10-31T01:20:07;90504.13;;;12.53;63.54
76074;BME280;64776;42.636;24.358;2022-10-31T01:22:33;90504.88;;;12.85;62.38
76074;BME280;64776;42.636;24.358;2022-10-31T01:25:00;90506.91;;;13.01;61.71
76074;BME280;64776;42.636;24.358;2022-10-31T01:27:26;90505.72;;;13.02;61.44
76074;BME280;64776;42.636;24.358;2022-10-31T01:29:53;90513.56;;;13.05;61.13
76074;BME280;64776;42.636;24.358;2022-10-31T01:32:18;90519.44;;;13.10;61.28
76074;BME280;64776;42.636;24.358;2022-10-31T01:34:44;90519.19;;;13.07;61.09
76074;BME280;64776;42.636;24.358;2022-10-31T01:37:10;90517.44;;;13.04;60.89
76074;BME280;64776;42.636;24.358;2022-10-31T01:39:36;90526.41;;;13.01;61.11
76074;BME280;64776;42.636;24.358;2022-10-31T01:42:02;90528.09;;;12.99;61.17
76074;BME280;64776;42.636;24.358;2022-10-31T01:44:58;90528.59;;;13.03;60.95
76074;BME280;64776;42.636;24.358;2022-10-31T01:47:38;90537.00;;;13.11;61.19
76074;BME280;64776;42.636;24.358;2022-10-31T01:50:11;90532.16;;;13.20;60.78
76074;BME280;64776;42.636;24.358;2022-10-31T01:52:40;90530.75;;;13.25;60.32
76074;BME280;64776;42.636;24.358;2022-10-31T01:55:11;90529.56;;;13.31;60.72
76074;BME280;64776;42.636;24.358;2022-10-31T01:57:39;90533.94;;;13.29;60.30
76074;BME280;64776;42.636;24.358;2022-10-31T02:00:11;90526.31;;;13.22;60.19
76074;BME280;64776;42.636;24.358;2022-10-31T02:02:37;90519.94;;;13.14;60.58
76074;BME280;64776;42.636;24.358;2022-10-31T02:05:06;90534.94;;;13.31;60.69
76074;BME280;64776;42.636;24.358;2022-10-31T02:07:37;90523.47;;;13.31;60.21
76074;BME280;64776;42.636;24.358;2022-10-31T02:10:05;90521.94;;;13.19;60.78
76074;BME280;64776;42.636;24.358;2022-10-31T02:12:32;90517.78;;;13.18;60.75
76074;BME280;64776;42.636;24.358;2022-10-31T02:14:59;90525.28;;;13.08;61.09
76074;BME280;64776;42.636;24.358;2022-10-31T02:17:29;90519.56;;;13.00;61.03
76074;BME280;64776;42.636;24.358;2022-10-31T02:20:03;90513.75;;;13.02;61.48
76074;BME280;64776;42.636;24.358;2022-10-31T02:22:38;90515.94;;;12.98;61.29
76074;BME280;64776;42.636;24.358;2022-10-31T02:25:27;90522.25;;;13.00;61.25
76074;BME280;64776;42.636;24.358;2022-10-31T02:28:12;90519.28;;;12.93;61.79
76074;BME280;64776;42.636;24.358;2022-10-31T02:30:54;90517.50;;;12.84;61.84
76074;BME280;64776;42.636;24.358;2022-10-31T02:33:25;90531.28;;;13.03;61.52
76074;BME280;64776;42.636;24.358;2022-10-31T02:35:58;90510.19;;;13.11;61.39
76074;BME280;64776;42.636;24.358;2022-10-31T02:38:37;90519.00;;;13.17;61.46
76074;BME280;64776;42.636;24.358;2022-10-31T02:41:08;90522.91;;;13.21;61.01
76074;BME280;64776;42.636;24.358;2022-10-31T02:43:40;90512.75;;;13.31;61.02
76074;BME280;64776;42.636;24.358;2022-10-31T02:46:14;90512.69;;;13.20;60.94
76074;BME280;64776;42.636;24.358;2022-10-31T02:48:45;90525.06;;;13.17;60.97
76074;BME280;64776;42.636;24.358;2022-10-31T02:51:12;90520.19;;;13.10;61.39
76074;BME280;64776;42.636;24.358;2022-10-31T02:53:39;90529.97;;;12.87;62.16
76074;BME280;64776;42.636;24.358;2022-10-31T02:56:06;90528.94;;;12.79;62.56
76074;BME280;64776;42.636;24.358;2022-10-31T02:58:37;90535.75;;;12.80;62.48
76074;BME280;64776;42.636;24.358;2022-10-31T03:01:27;90528.91;;;13.05;61.15
76074;BME280;64776;42.636;24.358;2022-10-31T03:04:08;90532.03;;;13.03;61.67
76074;BME280;64776;42.636;24.358;2022-10-31T03:06:41;90526.97;;;13.05;61.28
76074;BME280;64776;42.636;24.358;2022-10-31T03:09:14;90523.31;;;13.08;61.54
76074;BME280;64776;42.636;24.358;2022-10-31T03:11:45;90527.72;;;13.12;61.48
76074;BME280;64776;42.636;24.358;2022-10-31T03:14:20;90519.94;;;13.14;61.03
76074;BME280;64776;42.636;24.358;2022-10-31T03:16:50;90524.41;;;13.28;61.27
76074;BME280;64776;42.636;24.358;2022-10-31T03:19:18;90528.84;;;13.31;60.60
76074;BME280;64776;42.636;24.358;2022-10-31T03:21:48;90519.06;;;13.28;60.55
76074;BME280;64776;42.636;24.358;2022-10-31T03:24:15;90532.66;;;13.19;60.87
76074;BME280;64776;42.636;24.358;2022-10-31T03:26:44;90530.94;;;13.21;60.96
76074;BME280;64776;42.636;24.358;2022-10-31T03:29:15;90529.72;;;13.17;61.31
76074;BME280;64776;42.636;24.358;2022-10-31T03:31:46;90529.00;;;13.22;61.16
76074;BME280;64776;42.636;24.358;2022-10-31T03:34:15;90529.25;;;13.24;60.97
76074;BME280;64776;42.636;24.358;2022-10-31T03:36:44;90535.91;;;13.34;60.65
76074;BME280;64776;42.636;24.358;2022-10-31T03:39:13;90520.06;;;13.36;60.92
76074;BME280;64776;42.636;24.358;2022-10-31T03:41:43;90531.47;;;13.25;60.75
76074;BME280;64776;42.636;24.358;2022-10-31T03:44:13;90533.38;;;13.19;61.04
76074;BME280;64776;42.636;24.358;2022-10-31T03:46:40;90532.44;;;13.22;61.53
76074;BME280;64776;42.636;24.358;2022-10-31T03:49:07;90529.53;;;13.26;60.97
76074;BME280;64776;42.636;24.358;2022-10-31T03:51:39;90534.63;;;13.24;61.34
76074;BME280;64776;42.636;24.358;2022-10-31T03:54:12;90536.81;;;13.25;61.07
76074;BME280;64776;42.636;24.358;2022-10-31T03:56:43;90535.13;;;13.28;61.15
76074;BME280;64776;42.636;24.358;2022-10-31T03:59:14;90531.69;;;13.22;61.10
76074;BME280;64776;42.636;24.358;2022-10-31T04:01:46;90533.59;;;13.16;61.91
76074;BME280;64776;42.636;24.358;2022-10-31T04:04:14;90530.38;;;13.06;62.17
76074;BME280;64776;42.636;24.358;2022-10-31T04:06:43;90542.81;;;13.09;61.79
76074;BME280;64776;42.636;24.358;2022-10-31T04:09:10;90547.50;;;12.88;62.49
76074;BME280;64776;42.636;24.358;2022-10-31T04:11:40;90542.00;;;13.03;62.57
76074;BME280;64776;42.636;24.358;2022-10-31T04:14:08;90547.84;;;13.01;62.65
76074;BME280;64776;42.636;24.358;2022-10-31T04:16:35;90551.25;;;13.02;62.85
76074;BME280;64776;42.636;24.358;2022-10-31T04:19:01;90555.88;;;13.01;62.99
76074;BME280;64776;42.636;24.358;2022-10-31T04:21:28;90555.47;;;13.08;62.77
76074;BME280;64776;42.636;24.358;2022-10-31T04:23:55;90572.59;;;12.91;63.27
76074;BME280;64776;42.636;24.358;2022-10-31T04:26:21;90566.50;;;12.90;63.33
76074;BME280;64776;42.636;24.358;2022-10-31T04:28:47;90575.13;;;13.00;63.25
76074;BME280;64776;42.636;24.358;2022-10-31T04:31:13;90578.75;;;13.02;62.99
76074;BME280;64776;42.636;24.358;2022-10-31T04:33:39;90577.84;;;13.05;63.02
76074;BME280;64776;42.636;24.358;2022-10-31T04:36:05;90584.72;;;13.12;62.98
76074;BME280;64776;42.636;24.358;2022-10-31T04:38:31;90582.78;;;13.13;62.96
76074;BME280;64776;42.636;24.358;2022-10-31T04:40:58;90573.41;;;13.02;63.36
76074;BME280;64776;42.636;24.358;2022-10-31T04:43:24;90574.88;;;13.03;63.12
76074;BME280;64776;42.636;24.358;2022-10-31T04:45:50;90586.03;;;12.96;63.56
76074;BME280;64776;42.636;24.358;2022-10-31T04:48:15;90590.84;;;12.92;63.57
76074;BME280;64776;42.636;24.358;2022-10-31T04:50:42;90594.81;;;12.97;63.28
76074;BME280;64776;42.636;24.358;2022-10-31T04:53:08;90591.63;;;12.98;63.78
76074;BME280;64776;42.636;24.358;2022-10-31T04:55:34;90594.31;;;12.98;63.67
76074;BME280;64776;42.636;24.358;2022-10-31T04:58:02;90600.91;;;12.97;64.18
76074;BME280;64776;42.636;24.358;2022-10-31T05:00:28;90600.19;;;13.02;63.95
76074;BME280;64776;42.636;24.358;2022-10-31T05:02:55;90602.75;;;13.12;63.41
76074;BME280;64776;42.636;24.358;2022-10-31T05:05:22;90609.31;;;13.11;63.79
76074;BME280;64776;42.636;24.358;2022-10-31T05:07:50;90607.59;;;13.07;63.96
76074;BME280;64776;42.636;24.358;2022-10-31T05:10:18;90606.09;;;13.06;64.17
76074;BME280;64776;42.636;24.358;2022-10-31T05:12:48;90610.00;;;13.05;64.26
76074;BME280;64776;42.636;24.358;2022-10-31T05:15:17;90598.88;;;13.13;63.58
76074;BME280;64776;42.636;24.358;2022-10-31T05:17:43;90604.22;;;13.13;63.63
76074;BME280;64776;42.636;24.358;2022-10-31T05:20:10;90605.25;;;13.21;63.89
76074;BME280;64776;42.636;24.358;2022-10-31T05:22:36;90606.97;;;13.24;64.37
76074;BME280;64776;42.636;24.358;2022-10-31T05:25:02;90603.88;;;13.31;63.78
76074;BME280;64776;42.636;24.358;2022-10-31T05:27:28;90615.09;;;13.35;63.65
76074;BME280;64776;42.636;24.358;2022-10-31T05:29:53;90610.22;;;13.33;63.55
76074;BME280;64776;42.636;24.358;2022-10-31T05:32:21;90617.84;;;13.46;63.13
76074;BME280;64776;42.636;24.358;2022-10-31T05:34:46;90614.22;;;13.49;62.81
76074;BME280;64776;42.636;24.358;2022-10-31T05:37:12;90624.44;;;13.45;62.86
76074;BME280;64776;42.636;24.358;2022-10-31T05:39:38;90629.41;;;13.57;63.06
76074;BME280;64776;42.636;24.358;2022-10-31T05:42:04;90618.25;;;13.70;62.46
76074;BME280;64776;42.636;24.358;2022-10-31T05:44:30;90632.88;;;13.69;62.19
76074;BME280;64776;42.636;24.358;2022-10-31T05:46:55;90634.34;;;13.70;62.66
76074;BME280;64776;42.636;24.358;2022-10-31T05:49:23;90640.75;;;13.78;61.72
76074;BME280;64776;42.636;24.358;2022-10-31T05:51:48;90645.09;;;13.75;62.31
76074;BME280;64776;42.636;24.358;2022-10-31T05:54:14;90647.34;;;13.82;62.48
76074;BME280;64776;42.636;24.358;2022-10-31T05:56:40;90647.91;;;13.92;61.80
76074;BME280;64776;42.636;24.358;2022-10-31T05:59:06;90653.25;;;13.92;61.92
76074;BME280;64776;42.636;24.358;2022-10-31T06:01:31;90656.44;;;13.91;62.16
76074;BME280;64776;42.636;24.358;2022-10-31T06:03:57;90648.66;;;13.98;62.11
76074;BME280;64776;42.636;24.358;2022-10-31T06:06:24;90660.16;;;14.04;61.80
76074;BME280;64776;42.636;24.358;2022-10-31T06:08:50;90662.31;;;14.00;61.45
76074;BME280;64776;42.636;24.358;2022-10-31T06:11:16;90663.59;;;14.10;61.21
76074;BME280;64776;42.636;24.358;2022-10-31T06:13:42;90667.78;;;14.17;61.37
76074;BME280;64776;42.636;24.358;2022-10-31T06:16:07;90668.31;;;14.26;60.70
76074;BME280;64776;42.636;24.358;2022-10-31T06:18:33;90671.72;;;14.21;60.83
76074;BME280;64776;42.636;24.358;2022-10-31T06:20:59;90683.44;;;14.24;61.48
76074;BME280;64776;42.636;24.358;2022-10-31T06:23:26;90673.13;;;14.11;61.23
76074;BME280;64776;42.636;24.358;2022-10-31T06:25:52;90678.28;;;14.20;60.90
76074;BME280;64776;42.636;24.358;2022-10-31T06:28:18;90679.59;;;14.30;60.61
76074;BME280;64776;42.636;24.358;2022-10-31T06:30:43;90684.94;;;14.30;60.84
76074;BME280;64776;42.636;24.358;2022-10-31T06:33:09;90682.97;;;14.25;60.64
76074;BME280;64776;42.636;24.358;2022-10-31T06:35:35;90684.50;;;14.37;60.52
76074;BME280;64776;42.636;24.358;2022-10-31T06:38:01;90689.13;;;14.31;60.43
76074;BME280;64776;42.636;24.358;2022-10-31T06:40:28;90685.00;;;14.36;60.48
76074;BME280;64776;42.636;24.358;2022-10-31T06:42:58;90682.06;;;14.39;60.54
76074;BME280;64776;42.636;24.358;2022-10-31T06:45:24;90679.91;;;14.49;60.11
76074;BME280;64776;42.636;24.358;2022-10-31T06:47:51;90683.09;;;14.47;59.97
76074;BME280;64776;42.636;24.358;2022-10-31T06:50:16;90694.03;;;14.38;59.70
76074;BME280;64776;42.636;24.358;2022-10-31T06:52:42;90688.94;;;14.40;60.39
76074;BME280;64776;42.636;24.358;2022-10-31T06:55:08;90692.56;;;14.43;60.23
76074;BME280;64776;42.636;24.358;2022-10-31T06:57:35;90695.50;;;14.45;59.95
76074;BME280;64776;42.636;24.358;2022-10-31T07:00:01;90693.06;;;14.36;60.16
76074;BME280;64776;42.636;24.358;2022-10-31T07:02:27;90694.19;;;14.24;60.47
76074;BME280;64776;42.636;24.358;2022-10-31T07:04:53;90696.00;;;14.01;60.84
76074;BME280;64776;42.636;24.358;2022-10-31T07:07:18;90692.69;;;13.80;61.60
76074;BME280;64776;42.636;24.358;2022-10-31T07:09:44;90698.34;;;13.51;62.27
76074;BME280;64776;42.636;24.358;2022-10-31T07:12:10;90693.41;;;13.50;62.25
76074;BME280;64776;42.636;24.358;2022-10-31T07:14:37;90698.34;;;13.51;62.37
76074;BME280;64776;42.636;24.358;2022-10-31T07:17:03;90696.41;;;13.26;62.72
76074;BME280;64776;42.636;24.358;2022-10-31T07:19:29;90698.31;;;13.20;63.00
76074;BME280;64776;42.636;24.358;2022-10-31T07:21:54;90692.69;;;13.18;63.23
76074;BME280;64776;42.636;24.358;2022-10-31T07:24:22;90705.34;;;13.18;63.18
76074;BME280;64776;42.636;24.358;2022-10-31T07:26:47;90714.34;;;13.15;63.53
76074;BME280;64776;42.636;24.358;2022-10-31T07:29:13;90703.22;;;13.01;63.92
76074;BME280;64776;42.636;24.358;2022-10-31T07:31:40;90709.22;;;12.96;64.04
76074;BME280;64776;42.636;24.358;2022-10-31T07:34:06;90711.66;;;12.94;64.02
76074;BME280;64776;42.636;24.358;2022-10-31T07:36:32;90714.88;;;12.78;64.06
76074;BME280;64776;42.636;24.358;2022-10-31T07:38:58;90714.38;;;12.74;64.56
76074;BME280;64776;42.636;24.358;2022-10-31T07:41:24;90709.00;;;12.74;64.72
76074;BME280;64776;42.636;24.358;2022-10-31T07:43:49;90709.66;;;12.89;64.07
76074;BME280;64776;42.636;24.358;2022-10-31T07:46:15;90709.19;;;12.91;64.30
76074;BME280;64776;42.636;24.358;2022-10-31T07:48:42;90702.88;;;13.14;64.05
76074;BME280;64776;42.636;24.358;2022-10-31T07:51:08;90700.50;;;13.22;63.68
76074;BME280;64776;42.636;24.358;2022-10-31T07:53:34;90688.25;;;13.41;63.03
76074;BME280;64776;42.636;24.358;2022-10-31T07:56:00;90696.72;;;13.65;62.42
76074;BME280;64776;42.636;24.358;2022-10-31T07:58:26;90687.53;;;13.77;62.44
76074;BME280;64776;42.636;24.358;2022-10-31T08:00:51;90690.03;;;13.80;62.12
76074;BME280;64776;42.636;24.358;2022-10-31T08:03:18;90689.53;;;13.82;62.06
76074;BME280;64776;42.636;24.358;2022-10-31T08:05:46;90697.38;;;13.91;62.35
76074;BME280;64776;42.636;24.358;2022-10-31T08:08:12;90688.13;;;13.92;62.43
76074;BME280;64776;42.636;24.358;2022-10-31T08:10:38;90694.94;;;13.93;63.21
76074;BME280;64776;42.636;24.358;2022-10-31T08:13:06;90697.44;;;13.97;62.39
76074;BME280;64776;42.636;24.358;2022-10-31T08:15:32;90698.44;;;13.99;62.57
76074;BME280;64776;42.636;24.358;2022-10-31T08:17:58;90697.97;;;14.06;62.45
76074;BME280;64776;42.636;24.358;2022-10-31T08:20:24;90698.47;;;14.10;63.14
76074;BME280;64776;42.636;24.358;2022-10-31T08:22:56;90697.81;;;14.21;62.78
76074;BME280;64776;42.636;24.358;2022-10-31T08:25:22;90695.69;;;14.30;62.88
76074;BME280;64776;42.636;24.358;2022-10-31T08:27:49;90701.13;;;14.41;61.95
76074;BME280;64776;42.636;24.358;2022-10-31T08:30:16;90702.78;;;14.33;62.91
76074;BME280;64776;42.636;24.358;2022-10-31T08:32:41;90706.25;;;14.39;62.28
76074;BME280;64776;42.636;24.358;2022-10-31T08:35:07;90692.19;;;14.66;61.12
76074;BME280;64776;42.636;24.358;2022-10-31T08:37:33;90701.72;;;14.67;59.93
76074;BME280;64776;42.636;24.358;2022-10-31T08:40:00;90704.44;;;14.79;59.13
76074;BME280;64776;42.636;24.358;2022-10-31T08:42:26;90709.41;;;15.02;58.62
76074;BME280;64776;42.636;24.358;2022-10-31T08:44:52;90702.84;;;15.20;56.96
76074;BME280;64776;42.636;24.358;2022-10-31T08:47:18;90697.50;;;15.42;56.66
76074;BME280;64776;42.636;24.358;2022-10-31T08:49:43;90701.69;;;15.71;56.61
76074;BME280;64776;42.636;24.358;2022-10-31T08:52:09;90699.97;;;15.95;54.93
76074;BME280;64776;42.636;24.358;2022-10-31T08:54:35;90694.56;;;16.12;54.75
76074;BME280;64776;42.636;24.358;2022-10-31T08:57:02;90696.50;;;16.34;54.09
76074;BME280;64776;42.636;24.358;2022-10-31T08:59:28;90703.88;;;16.16;53.59
76074;BME280;64776;42.636;24.358;2022-10-31T09:01:54;90703.88;;;16.27;54.21
76074;BME280;64776;42.636;24.358;2022-10-31T09:04:20;90701.41;;;16.29;54.04
76074;BME280;64776;42.636;24.358;2022-10-31T09:06:45;90708.00;;;16.28;53.74
76074;BME280;64776;42.636;24.358;2022-10-31T09:09:11;90711.69;;;16.31;54.25
76074;BME280;64776;42.636;24.358;2022-10-31T09:11:37;90708.78;;;16.23;54.07
76074;BME280;64776;42.636;24.358;2022-10-31T09:14:04;90715.66;;;16.13;54.17
76074;BME280;64776;42.636;24.358;2022-10-31T09:16:30;90710.25;;;16.02;54.59
76074;BME280;64776;42.636;24.358;2022-10-31T09:18:56;90718.34;;;15.97;54.52
76074;BME280;64776;42.636;24.358;2022-10-31T09:21:21;90714.19;;;15.96;54.53
76074;BME280;64776;42.636;24.358;2022-10-31T09:23:47;90718.09;;;16.00;54.96
76074;BME280;64776;42.636;24.358;2022-10-31T09:26:13;90714.91;;;16.02;54.69
76074;BME280;64776;42.636;24.358;2022-10-31T09:28:39;90713.19;;;16.04;54.44
76074;BME280;64776;42.636;24.358;2022-10-31T09:31:06;90710.25;;;16.13;54.39
76074;BME280;64776;42.636;24.358;2022-10-31T09:33:32;90718.31;;;16.08;54.23
76074;BME280;64776;42.636;24.358;2022-10-31T09:35:58;90723.25;;;15.93;54.58
76074;BME280;64776;42.636;24.358;2022-10-31T09:38:24;90721.53;;;16.01;54.62
76074;BME280;64776;42.636;24.358;2022-10-31T09:40:55;90722.97;;;16.07;54.36
76074;BME280;64776;42.636;24.358;2022-10-31T09:43:32;90714.16;;;16.01;54.24
76074;BME280;64776;42.636;24.358;2022-10-31T09:46:07;90709.03;;;16.09;54.26
76074;BME280;64776;42.636;24.358;2022-10-31T09:48:44;90719.56;;;16.01;54.21
76074;BME280;64776;42.636;24.358;2022-10-31T09:51:18;90721.97;;;16.27;53.55
76074;BME280;64776;42.636;24.358;2022-10-31T09:53:50;90713.88;;;16.38;54.46
76074;BME280;64776;42.636;24.358;2022-10-31T09:56:17;90705.78;;;16.44;53.12
76074;BME280;64776;42.636;24.358;2022-10-31T09:58:45;90708.00;;;16.56;52.79
76074;BME280;64776;42.636;24.358;2022-10-31T10:01:28;90703.34;;;16.57;52.65
76074;BME280;64776;42.636;24.358;2022-10-31T10:03:58;90706.97;;;16.70;52.54
76074;BME280;64776;42.636;24.358;2022-10-31T10:06:29;90708.66;;;16.79;52.08
76074;BME280;64776;42.636;24.358;2022-10-31T10:08:57;90700.31;;;16.77;52.25
76074;BME280;64776;42.636;24.358;2022-10-31T10:11:40;90705.44;;;16.80;52.06
76074;BME280;64776;42.636;24.358;2022-10-31T10:14:20;90708.38;;;16.82;52.13
76074;BME280;64776;42.636;24.358;2022-10-31T10:17:00;90693.88;;;16.91;51.64
76074;BME280;64776;42.636;24.358;2022-10-31T10:19:43;90700.72;;;16.92;52.20
76074;BME280;64776;42.636;24.358;2022-10-31T10:22:15;90700.78;;;16.81;52.03
76074;BME280;64776;42.636;24.358;2022-10-31T10:24:59;90695.16;;;16.79;51.84
76074;BME280;64776;42.636;24.358;2022-10-31T10:27:36;90696.34;;;16.89;52.04
76074;BME280;64776;42.636;24.358;2022-10-31T10:30:13;90700.81;;;16.70;51.65
76074;BME280;64776;42.636;24.358;2022-10-31T10:32:43;90701.84;;;16.67;52.09
76074;BME280;64776;42.636;24.358;2022-10-31T10:35:18;90690.31;;;16.66;52.56
76074;BME280;64776;42.636;24.358;2022-10-31T10:37:46;90685.13;;;16.79;51.89
76074;BME280;64776;42.636;24.358;2022-10-31T10:40:16;90684.09;;;16.88;51.77
76074;BME280;64776;42.636;24.358;2022-10-31T10:42:45;90686.72;;;17.04;51.30
76074;BME280;64776;42.636;24.358;2022-10-31T10:45:18;90681.44;;;17.29;50.42
76074;BME280;64776;42.636;24.358;2022-10-31T10:47:50;90681.06;;;17.49;50.11
76074;BME280;64776;42.636;24.358;2022-10-31T10:50:20;90686.72;;;17.45;50.12
76074;BME280;64776;42.636;24.358;2022-10-31T10:52:52;90681.97;;;17.22;50.71
76074;BME280;64776;42.636;24.358;2022-10-31T10:55:29;90685.88;;;17.26;50.43
76074;BME280;64776;42.636;24.358;2022-10-31T10:58:00;90683.34;;;17.34;50.82
76074;BME280;64776;42.636;24.358;2022-10-31T11:00:29;90684.84;;;17.29;50.49
76074;BME280;64776;42.636;24.358;2022-10-31T11:02:57;90673.41;;;17.18;50.68
76074;BME280;64776;42.636;24.358;2022-10-31T11:05:39;90679.91;;;17.33;50.67
76074;BME280;64776;42.636;24.358;2022-10-31T11:08:07;90677.47;;;17.35;50.53
76074;BME280;64776;42.636;24.358;2022-10-31T11:10:33;90684.34;;;17.36;50.22
76074;BME280;64776;42.636;24.358;2022-10-31T11:13:20;90679.81;;;17.55;49.96
76074;BME280;64776;42.636;24.358;2022-10-31T11:15:53;90682.28;;;17.88;49.54
76074;BME280;64776;42.636;24.358;2022-10-31T11:18:25;90683.69;;;17.65;48.62
76074;BME280;64776;42.636;24.358;2022-10-31T11:20:54;90682.28;;;17.48;49.33
76074;BME280;64776;42.636;24.358;2022-10-31T11:23:22;90681.38;;;17.75;49.47
76074;BME280;64776;42.636;24.358;2022-10-31T11:25:50;90684.19;;;18.18;48.30
76074;BME280;64776;42.636;24.358;2022-10-31T11:28:16;90673.16;;;18.45;48.29
76074;BME280;64776;42.636;24.358;2022-10-31T11:30:44;90676.47;;;18.57;47.08
76074;BME280;64776;42.636;24.358;2022-10-31T11:33:17;90677.38;;;18.65;46.75
76074;BME280;64776;42.636;24.358;2022-10-31T11:35:45;90666.69;;;18.54;47.04
76074;BME280;64776;42.636;24.358;2022-10-31T11:38:17;90671.94;;;18.41;47.74
76074;BME280;64776;42.636;24.358;2022-10-31T11:40:52;90665.78;;;18.46;47.26
76074;BME280;64776;42.636;24.358;2022-10-31T11:43:19;90668.19;;;18.25;47.41
76074;BME280;64776;42.636;24.358;2022-10-31T11:45:45;90666.22;;;18.26;47.54
76074;BME280;64776;42.636;24.358;2022-10-31T11:48:16;90667.44;;;18.25;47.42
76074;BME280;64776;42.636;24.358;2022-10-31T11:50:42;90673.59;;;18.25;47.65
76074;BME280;64776;42.636;24.358;2022-10-31T11:53:16;90674.66;;;18.17;48.13
76074;BME280;64776;42.636;24.358;2022-10-31T11:55:43;90682.38;;;18.02;47.75
76074;BME280;64776;42.636;24.358;2022-10-31T11:58:20;90670.78;;;17.82;48.25
76074;BME280;64776;42.636;24.358;2022-10-31T12:00:50;90671.03;;;17.84;48.08
76074;BME280;64776;42.636;24.358;2022-10-31T12:03:26;90679.88;;;17.79;48.63
76074;BME280;64776;42.636;24.358;2022-10-31T12:05:58;90680.13;;;17.81;47.92
76074;BME280;64776;42.636;24.358;2022-10-31T12:08:30;90674.06;;;18.00;48.33
76074;BME280;64776;42.636;24.358;2022-10-31T12:11:16;90679.56;;;17.88;48.36
76074;BME280;64776;42.636;24.358;2022-10-31T12:13:56;90676.81;;;17.94;48.34
76074;BME280;64776;42.636;24.358;2022-10-31T12:16:25;90681.19;;;17.97;48.37
76074;BME280;64776;42.636;24.358;2022-10-31T12:18:58;90680.72;;;17.99;47.76
76074;BME280;64776;42.636;24.358;2022-10-31T12:21:45;90674.44;;;17.85;47.83
76074;BME280;64776;42.636;24.358;2022-10-31T12:24:27;90677.09;;;17.91;48.27
76074;BME280;64776;42.636;24.358;2022-10-31T12:27:06;90673.81;;;18.03;47.90
76074;BME280;64776;42.636;24.358;2022-10-31T12:29:55;90679.91;;;18.04;47.57
76074;BME280;64776;42.636;24.358;2022-10-31T12:32:32;90678.47;;;18.03;47.18
76074;BME280;64776;42.636;24.358;2022-10-31T12:35:31;90673.28;;;18.05;47.36
76074;BME280;64776;42.636;24.358;2022-10-31T12:38:34;90675.31;;;17.99;47.41
76074;BME280;64776;42.636;24.358;2022-10-31T12:41:15;90679.47;;;18.00;47.56
76074;BME280;64776;42.636;24.358;2022-10-31T12:43:48;90679.47;;;18.00;47.38
76074;BME280;64776;42.636;24.358;2022-10-31T12:46:27;90675.53;;;18.01;47.38
76074;BME280;64776;42.636;24.358;2022-10-31T12:52:03;90681.03;;;18.19;47.01
76074;BME280;64776;42.636;24.358;2022-10-31T12:54:59;90678.56;;;18.16;46.58
76074;BME280;64776;42.636;24.358;2022-10-31T12:57:32;90677.13;;;17.85;47.28
76074;BME280;64776;42.636;24.358;2022-10-31T13:00:02;90682.59;;;17.79;46.34
76074;BME280;64776;42.636;24.358;2022-10-31T13:02:31;90681.94;;;17.98;46.55
76074;BME280;64776;42.636;24.358;2022-10-31T13:05:04;90688.53;;;18.02;46.30